sensor_id;sensor_type;location;lat;lon;timestamp;P1;durP1;ratioP1;P2;durP2;ratioP2
8652;SDS011;4364;52.426;9.424;2023-08-30T00:01:00;4.10;;;3.70;;
8652;SDS011;4364;52.426;9.424;2023-08-30T00:03:27;5.17;;;4.00;;
8652;SDS011;4364;52.426;9.424;2023-08-30T00:05:54;3.97;;;3.50;;
8652;SDS011;4364;52.426;9.424;2023-08-30T00:08:21;5.87;;;3.83;;
8652;SDS011;4364;52.426;9.424;2023-08-30T00:10:48;4.37;;;3.30;;
8652;SDS011;4364;52.426;9.424;2023-08-30T00:13:14;5.17;;;3.73;;
8652;SDS011;4364;52.426;9.424;2023-08-30T00:15:41;3.93;;;3.53;;
8652;SDS011;4364;52.426;9.424;2023-08-30T00:18:07;4.23;;;3.83;;
8652;SDS011;4364;52.426;9.424;2023-08-30T00:20:34;6.27;;;3.90;;
8652;SDS011;4364;52.426;9.424;2023-08-30T00:23:01;4.23;;;3.80;;
8652;SDS011;4364;52.426;9.424;2023-08-30T00:25:27;4.73;;;4.10;;
8652;SDS011;4364;52.426;9.424;2023-08-30T00:27:54;4.60;;;4.10;;
8652;SDS011;4364;52.426;9.424;2023-08-30T00:30:20;4.60;;;4.17;;
8652;SDS011;4364;52.426;9.424;2023-08-30T00:32:47;5.30;;;4.20;;
8652;SDS011;4364;52.426;9.424;2023-08-30T00:35:14;4.50;;;4.10;;
8652;SDS011;4364;52.426;9.424;2023-08-30T00:37:40;4.40;;;4.00;;
8652;SDS011;4364;52.426;9.424;2023-08-30T00:40:07;4.13;;;3.73;;
8652;SDS011;4364;52.426;9.424;2023-08-30T00:42:34;4.23;;;3.80;;
8652;SDS011;4364;52.426;9.424;2023-08-30T00:45:00;5.07;;;4.20;;
8652;SDS011;4364;52.426;9.424;2023-08-30T00:47:27;4.50;;;3.70;;
8652;SDS011;4364;52.426;9.424;2023-08-30T00:49:54;4.57;;;4.17;;
8652;SDS011;4364;52.426;9.424;2023-08-30T00:52:22;5.03;;;4.50;;
8652;SDS011;4364;52.426;9.424;2023-08-30T00:54:49;4.60;;;4.20;;
8652;SDS011;4364;52.426;9.424;2023-08-30T00:57:16;4.93;;;4.00;;
8652;SDS011;4364;52.426;9.424;2023-08-30T00:59:43;3.80;;;3.50;;
8652;SDS011;4364;52.426;9.424;2023-08-30T01:02:10;5.37;;;3.93;;
8652;SDS011;4364;52.426;9.424;2023-08-30T01:04:36;4.27;;;3.80;;
8652;SDS011;4364;52.426;9.424;2023-08-30T01:07:04;4.20;;;3.80;;
8652;SDS011;4364;52.426;9.424;2023-08-30T01:09:32;4.10;;;3.63;;
8652;SDS011;4364;52.426;9.424;2023-08-30T01:12:04;5.00;;;3.47;;
8652;SDS011;4364;52.426;9.424;2023-08-30T01:15:12;4.67;;;3.57;;
8652;SDS011;4364;52.426;9.424;2023-08-30T01:17:43;4.47;;;4.07;;
8652;SDS011;4364;52.426;9.424;2023-08-30T01:20:10;4.13;;;3.73;;
8652;SDS011;4364;52.426;9.424;2023-08-30T01:28:21;4.40;;;4.00;;
8652;SDS011;4364;52.426;9.424;2023-08-30T01:30:51;5.23;;;4.77;;
8652;SDS011;4364;52.426;9.424;2023-08-30T01:33:20;4.50;;;4.03;;
8652;SDS011;4364;52.426;9.424;2023-08-30T01:35:50;5.03;;;4.53;;
8652;SDS011;4364;52.426;9.424;2023-08-30T01:38:17;5.00;;;4.50;;
8652;SDS011;4364;52.426;9.424;2023-08-30T01:40:43;5.37;;;4.40;;
8652;SDS011;4364;52.426;9.424;2023-08-30T01:43:11;5.83;;;4.80;;
8652;SDS011;4364;52.426;9.424;2023-08-30T01:45:40;5.20;;;4.47;;
8652;SDS011;4364;52.426;9.424;2023-08-30T01:48:12;4.83;;;4.20;;
8652;SDS011;4364;52.426;9.424;2023-08-30T01:50:41;5.37;;;4.87;;
8652;SDS011;4364;52.426;9.424;2023-08-30T01:53:12;5.20;;;4.70;;
8652;SDS011;4364;52.426;9.424;2023-08-30T01:55:40;6.77;;;4.70;;
8652;SDS011;4364;52.426;9.424;2023-08-30T01:58:09;6.30;;;4.73;;
8652;SDS011;4364;52.426;9.424;2023-08-30T02:00:37;5.60;;;4.83;;
8652;SDS011;4364;52.426;9.424;2023-08-30T02:03:07;5.17;;;4.67;;
8652;SDS011;4364;52.426;9.424;2023-08-30T02:05:35;6.23;;;5.10;;
8652;SDS011;4364;52.426;9.424;2023-08-30T02:08:15;5.60;;;4.70;;
8652;SDS011;4364;52.426;9.424;2023-08-30T02:10:51;7.90;;;4.87;;
8652;SDS011;4364;52.426;9.424;2023-08-30T02:13:25;5.97;;;4.87;;
8652;SDS011;4364;52.426;9.424;2023-08-30T02:15:54;7.27;;;5.40;;
8652;SDS011;4364;52.426;9.424;2023-08-30T02:18:23;6.13;;;4.63;;
8652;SDS011;4364;52.426;9.424;2023-08-30T02:20:55;5.53;;;5.03;;
8652;SDS011;4364;52.426;9.424;2023-08-30T02:23:25;5.67;;;5.10;;
8652;SDS011;4364;52.426;9.424;2023-08-30T02:25:54;5.10;;;4.60;;
8652;SDS011;4364;52.426;9.424;2023-08-30T02:28:21;5.27;;;4.73;;
8652;SDS011;4364;52.426;9.424;2023-08-30T02:30:49;5.03;;;4.63;;
8652;SDS011;4364;52.426;9.424;2023-08-30T02:33:19;5.13;;;4.63;;
8652;SDS011;4364;52.426;9.424;2023-08-30T02:35:45;7.27;;;4.60;;
8652;SDS011;4364;52.426;9.424;2023-08-30T02:38:11;5.63;;;5.13;;
8652;SDS011;4364;52.426;9.424;2023-08-30T02:40:38;6.40;;;4.70;;
8652;SDS011;4364;52.426;9.424;2023-08-30T02:43:04;6.40;;;5.80;;
8652;SDS011;4364;52.426;9.424;2023-08-30T02:45:31;5.63;;;4.90;;
8652;SDS011;4364;52.426;9.424;2023-08-30T02:47:57;7.10;;;4.80;;
8652;SDS011;4364;52.426;9.424;2023-08-30T02:50:25;5.47;;;4.93;;
8652;SDS011;4364;52.426;9.424;2023-08-30T02:52:51;5.50;;;5.00;;
8652;SDS011;4364;52.426;9.424;2023-08-30T02:55:19;5.40;;;4.87;;
8652;SDS011;4364;52.426;9.424;2023-08-30T02:57:45;6.27;;;4.77;;
8652;SDS011;4364;52.426;9.424;2023-08-30T03:00:13;5.00;;;4.60;;
8652;SDS011;4364;52.426;9.424;2023-08-30T03:02:43;5.03;;;4.63;;
8652;SDS011;4364;52.426;9.424;2023-08-30T03:05:10;5.57;;;4.77;;
8652;SDS011;4364;52.426;9.424;2023-08-30T03:07:38;4.93;;;4.53;;
8652;SDS011;4364;52.426;9.424;2023-08-30T03:10:06;5.70;;;4.97;;
8652;SDS011;4364;52.426;9.424;2023-08-30T03:12:33;5.83;;;4.67;;
8652;SDS011;4364;52.426;9.424;2023-08-30T03:15:00;6.97;;;5.40;;
8652;SDS011;4364;52.426;9.424;2023-08-30T03:17:27;5.97;;;5.33;;
8652;SDS011;4364;52.426;9.424;2023-08-30T03:19:57;6.27;;;5.70;;
8652;SDS011;4364;52.426;9.424;2023-08-30T03:22:24;6.20;;;5.60;;
8652;SDS011;4364;52.426;9.424;2023-08-30T03:24:51;5.73;;;5.23;;
8652;SDS011;4364;52.426;9.424;2023-08-30T03:27:18;6.70;;;5.27;;
8652;SDS011;4364;52.426;9.424;2023-08-30T03:29:46;5.87;;;5.27;;
8652;SDS011;4364;52.426;9.424;2023-08-30T03:32:16;5.83;;;5.33;;
8652;SDS011;4364;52.426;9.424;2023-08-30T03:34:44;6.10;;;5.03;;
8652;SDS011;4364;52.426;9.424;2023-08-30T03:37:12;6.80;;;5.40;;
8652;SDS011;4364;52.426;9.424;2023-08-30T03:39:40;5.73;;;5.23;;
8652;SDS011;4364;52.426;9.424;2023-08-30T03:42:06;7.40;;;5.80;;
8652;SDS011;4364;52.426;9.424;2023-08-30T03:44:33;6.63;;;5.93;;
8652;SDS011;4364;52.426;9.424;2023-08-30T03:47:05;6.13;;;5.30;;
8652;SDS011;4364;52.426;9.424;2023-08-30T03:49:32;5.90;;;5.30;;
8652;SDS011;4364;52.426;9.424;2023-08-30T03:51:58;5.83;;;5.27;;
8652;SDS011;4364;52.426;9.424;2023-08-30T03:54:25;6.60;;;5.93;;
8652;SDS011;4364;52.426;9.424;2023-08-30T03:56:52;6.73;;;6.03;;
8652;SDS011;4364;52.426;9.424;2023-08-30T03:59:18;6.00;;;5.40;;
8652;SDS011;4364;52.426;9.424;2023-08-30T04:01:45;6.67;;;5.93;;
8652;SDS011;4364;52.426;9.424;2023-08-30T04:04:12;6.73;;;6.13;;
8652;SDS011;4364;52.426;9.424;2023-08-30T04:06:38;7.03;;;5.87;;
8652;SDS011;4364;52.426;9.424;2023-08-30T04:09:06;6.90;;;5.40;;
8652;SDS011;4364;52.426;9.424;2023-08-30T04:11:32;6.83;;;5.87;;
8652;SDS011;4364;52.426;9.424;2023-08-30T04:13:59;6.53;;;5.83;;
8652;SDS011;4364;52.426;9.424;2023-08-30T04:16:25;6.70;;;6.00;;
8652;SDS011;4364;52.426;9.424;2023-08-30T04:18:52;6.60;;;6.00;;
8652;SDS011;4364;52.426;9.424;2023-08-30T04:21:19;6.43;;;5.33;;
8652;SDS011;4364;52.426;9.424;2023-08-30T04:23:46;6.63;;;5.30;;
8652;SDS011;4364;52.426;9.424;2023-08-30T04:26:12;7.07;;;6.17;;
8652;SDS011;4364;52.426;9.424;2023-08-30T04:28:39;6.63;;;5.73;;
8652;SDS011;4364;52.426;9.424;2023-08-30T04:31:06;6.10;;;5.57;;
8652;SDS011;4364;52.426;9.424;2023-08-30T04:33:33;6.37;;;5.30;;
8652;SDS011;4364;52.426;9.424;2023-08-30T04:36:00;8.50;;;5.90;;
8652;SDS011;4364;52.426;9.424;2023-08-30T04:38:31;7.20;;;6.27;;
8652;SDS011;4364;52.426;9.424;2023-08-30T04:40:58;6.80;;;6.20;;
8652;SDS011;4364;52.426;9.424;2023-08-30T04:43:26;6.97;;;6.27;;
8652;SDS011;4364;52.426;9.424;2023-08-30T04:45:53;6.63;;;6.00;;
8652;SDS011;4364;52.426;9.424;2023-08-30T04:48:22;8.43;;;6.50;;
8652;SDS011;4364;52.426;9.424;2023-08-30T04:50:57;6.20;;;5.60;;
8652;SDS011;4364;52.426;9.424;2023-08-30T04:53:25;8.83;;;6.43;;
8652;SDS011;4364;52.426;9.424;2023-08-30T04:55:52;7.70;;;6.83;;
8652;SDS011;4364;52.426;9.424;2023-08-30T04:58:18;9.83;;;6.80;;
8652;SDS011;4364;52.426;9.424;2023-08-30T05:00:45;6.80;;;6.10;;
8652;SDS011;4364;52.426;9.424;2023-08-30T05:03:12;6.43;;;5.70;;
8652;SDS011;4364;52.426;9.424;2023-08-30T05:05:38;7.50;;;5.60;;
8652;SDS011;4364;52.426;9.424;2023-08-30T05:08:06;7.60;;;5.97;;
8652;SDS011;4364;52.426;9.424;2023-08-30T05:10:33;6.63;;;5.93;;
8652;SDS011;4364;52.426;9.424;2023-08-30T05:13:00;7.43;;;6.63;;
8652;SDS011;4364;52.426;9.424;2023-08-30T05:15:26;6.80;;;5.87;;
8652;SDS011;4364;52.426;9.424;2023-08-30T05:17:53;7.90;;;7.10;;
8652;SDS011;4364;52.426;9.424;2023-08-30T05:20:19;8.40;;;6.90;;
8652;SDS011;4364;52.426;9.424;2023-08-30T05:22:48;7.17;;;6.47;;
8652;SDS011;4364;52.426;9.424;2023-08-30T05:25:14;7.20;;;6.50;;
8652;SDS011;4364;52.426;9.424;2023-08-30T05:27:41;7.00;;;6.07;;
8652;SDS011;4364;52.426;9.424;2023-08-30T05:30:08;6.83;;;6.13;;
8652;SDS011;4364;52.426;9.424;2023-08-30T05:32:35;8.60;;;7.73;;
8652;SDS011;4364;52.426;9.424;2023-08-30T05:35:23;8.63;;;6.97;;
8652;SDS011;4364;52.426;9.424;2023-08-30T05:38:28;9.97;;;7.37;;
8652;SDS011;4364;52.426;9.424;2023-08-30T05:41:14;9.43;;;7.73;;
8652;SDS011;4364;52.426;9.424;2023-08-30T05:43:40;7.47;;;6.13;;
8652;SDS011;4364;52.426;9.424;2023-08-30T05:46:06;7.87;;;6.83;;
8652;SDS011;4364;52.426;9.424;2023-08-30T05:48:38;9.73;;;6.57;;
8652;SDS011;4364;52.426;9.424;2023-08-30T05:51:05;6.67;;;5.97;;
8652;SDS011;4364;52.426;9.424;2023-08-30T05:53:31;6.67;;;5.97;;
8652;SDS011;4364;52.426;9.424;2023-08-30T05:55:58;7.17;;;6.47;;
8652;SDS011;4364;52.426;9.424;2023-08-30T05:58:24;8.27;;;6.90;;
8652;SDS011;4364;52.426;9.424;2023-08-30T06:00:51;9.20;;;6.27;;
8652;SDS011;4364;52.426;9.424;2023-08-30T06:03:17;8.67;;;6.80;;
8652;SDS011;4364;52.426;9.424;2023-08-30T06:05:44;9.60;;;6.57;;
8652;SDS011;4364;52.426;9.424;2023-08-30T06:08:11;7.83;;;7.03;;
8652;SDS011;4364;52.426;9.424;2023-08-30T06:10:38;10.33;;;8.37;;
8652;SDS011;4364;52.426;9.424;2023-08-30T06:13:05;9.90;;;8.07;;
8652;SDS011;4364;52.426;9.424;2023-08-30T06:15:32;8.97;;;8.03;;
8652;SDS011;4364;52.426;9.424;2023-08-30T06:17:59;12.40;;;8.00;;
8652;SDS011;4364;52.426;9.424;2023-08-30T06:20:26;8.03;;;7.33;;
8652;SDS011;4364;52.426;9.424;2023-08-30T06:22:53;9.70;;;8.13;;
8652;SDS011;4364;52.426;9.424;2023-08-30T06:25:19;13.93;;;8.33;;
8652;SDS011;4364;52.426;9.424;2023-08-30T06:27:55;10.23;;;7.80;;
8652;SDS011;4364;52.426;9.424;2023-08-30T06:30:23;11.10;;;8.43;;
8652;SDS011;4364;52.426;9.424;2023-08-30T06:32:50;11.97;;;8.43;;
8652;SDS011;4364;52.426;9.424;2023-08-30T06:35:16;8.70;;;7.80;;
8652;SDS011;4364;52.426;9.424;2023-08-30T06:37:43;8.67;;;7.80;;
8652;SDS011;4364;52.426;9.424;2023-08-30T06:40:09;8.97;;;7.60;;
8652;SDS011;4364;52.426;9.424;2023-08-30T06:42:36;10.03;;;7.80;;
8652;SDS011;4364;52.426;9.424;2023-08-30T06:45:05;8.87;;;7.27;;
8652;SDS011;4364;52.426;9.424;2023-08-30T06:47:32;9.93;;;8.07;;
8652;SDS011;4364;52.426;9.424;2023-08-30T06:50:00;9.67;;;8.67;;
8652;SDS011;4364;52.426;9.424;2023-08-30T06:52:27;12.47;;;8.90;;
8652;SDS011;4364;52.426;9.424;2023-08-30T06:54:53;8.97;;;8.07;;
8652;SDS011;4364;52.426;9.424;2023-08-30T06:57:20;10.33;;;8.30;;
8652;SDS011;4364;52.426;9.424;2023-08-30T06:59:48;10.27;;;8.80;;
8652;SDS011;4364;52.426;9.424;2023-08-30T07:02:14;10.73;;;8.93;;
8652;SDS011;4364;52.426;9.424;2023-08-30T07:04:40;11.60;;;9.27;;
8652;SDS011;4364;52.426;9.424;2023-08-30T07:07:07;11.27;;;9.30;;
8652;SDS011;4364;52.426;9.424;2023-08-30T07:09:33;11.13;;;10.00;;
8652;SDS011;4364;52.426;9.424;2023-08-30T07:12:00;11.77;;;9.97;;
8652;SDS011;4364;52.426;9.424;2023-08-30T07:14:27;11.47;;;9.07;;
8652;SDS011;4364;52.426;9.424;2023-08-30T07:16:53;13.93;;;10.40;;
8652;SDS011;4364;52.426;9.424;2023-08-30T07:19:20;11.13;;;9.00;;
8652;SDS011;4364;52.426;9.424;2023-08-30T07:21:47;12.23;;;10.07;;
8652;SDS011;4364;52.426;9.424;2023-08-30T07:24:14;11.57;;;9.03;;
8652;SDS011;4364;52.426;9.424;2023-08-30T07:26:41;13.00;;;9.97;;
8652;SDS011;4364;52.426;9.424;2023-08-30T07:29:08;11.63;;;9.40;;
8652;SDS011;4364;52.426;9.424;2023-08-30T07:31:35;11.83;;;9.30;;
8652;SDS011;4364;52.426;9.424;2023-08-30T07:34:02;9.97;;;8.90;;
8652;SDS011;4364;52.426;9.424;2023-08-30T07:36:29;14.97;;;10.67;;
8652;SDS011;4364;52.426;9.424;2023-08-30T07:39:12;13.27;;;10.40;;
8652;SDS011;4364;52.426;9.424;2023-08-30T07:41:38;15.73;;;11.53;;
8652;SDS011;4364;52.426;9.424;2023-08-30T07:44:05;15.30;;;11.63;;
8652;SDS011;4364;52.426;9.424;2023-08-30T07:46:31;14.97;;;11.63;;
8652;SDS011;4364;52.426;9.424;2023-08-30T07:48:58;15.43;;;12.20;;
8652;SDS011;4364;52.426;9.424;2023-08-30T07:51:25;17.10;;;12.10;;
8652;SDS011;4364;52.426;9.424;2023-08-30T07:53:51;14.83;;;12.33;;
8652;SDS011;4364;52.426;9.424;2023-08-30T07:56:17;13.37;;;11.10;;
8652;SDS011;4364;52.426;9.424;2023-08-30T07:58:44;12.70;;;10.23;;
8652;SDS011;4364;52.426;9.424;2023-08-30T08:01:10;14.73;;;11.77;;
8652;SDS011;4364;52.426;9.424;2023-08-30T08:03:37;14.17;;;10.77;;
8652;SDS011;4364;52.426;9.424;2023-08-30T08:06:14;13.50;;;11.03;;
8652;SDS011;4364;52.426;9.424;2023-08-30T08:08:40;15.83;;;12.60;;
8652;SDS011;4364;52.426;9.424;2023-08-30T08:11:07;18.27;;;12.80;;
8652;SDS011;4364;52.426;9.424;2023-08-30T08:13:33;19.17;;;14.27;;
8652;SDS011;4364;52.426;9.424;2023-08-30T08:16:00;15.17;;;12.23;;
8652;SDS011;4364;52.426;9.424;2023-08-30T08:18:27;14.20;;;11.80;;
8652;SDS011;4364;52.426;9.424;2023-08-30T08:20:53;15.53;;;12.70;;
8652;SDS011;4364;52.426;9.424;2023-08-30T08:23:20;18.13;;;13.30;;
8652;SDS011;4364;52.426;9.424;2023-08-30T08:25:46;22.37;;;16.70;;
8652;SDS011;4364;52.426;9.424;2023-08-30T08:28:13;19.83;;;16.10;;
8652;SDS011;4364;52.426;9.424;2023-08-30T08:30:40;20.13;;;13.27;;
8652;SDS011;4364;52.426;9.424;2023-08-30T08:33:08;14.60;;;12.03;;
8652;SDS011;4364;52.426;9.424;2023-08-30T08:35:35;14.60;;;11.33;;
8652;SDS011;4364;52.426;9.424;2023-08-30T08:38:01;15.57;;;11.67;;
8652;SDS011;4364;52.426;9.424;2023-08-30T08:40:28;14.27;;;11.47;;
8652;SDS011;4364;52.426;9.424;2023-08-30T08:43:09;12.57;;;10.07;;
8652;SDS011;4364;52.426;9.424;2023-08-30T08:45:36;12.77;;;10.30;;
8652;SDS011;4364;52.426;9.424;2023-08-30T08:48:03;14.17;;;10.37;;
8652;SDS011;4364;52.426;9.424;2023-08-30T08:50:31;13.20;;;9.77;;
8652;SDS011;4364;52.426;9.424;2023-08-30T08:52:59;13.80;;;10.60;;
8652;SDS011;4364;52.426;9.424;2023-08-30T08:55:29;12.47;;;9.47;;
8652;SDS011;4364;52.426;9.424;2023-08-30T08:57:57;13.50;;;10.80;;
8652;SDS011;4364;52.426;9.424;2023-08-30T09:00:26;14.30;;;11.63;;
8652;SDS011;4364;52.426;9.424;2023-08-30T09:02:53;16.37;;;11.70;;
8652;SDS011;4364;52.426;9.424;2023-08-30T09:05:21;14.87;;;12.53;;
8652;SDS011;4364;52.426;9.424;2023-08-30T09:07:48;14.90;;;11.93;;
8652;SDS011;4364;52.426;9.424;2023-08-30T09:10:20;12.70;;;10.97;;
8652;SDS011;4364;52.426;9.424;2023-08-30T09:12:48;13.87;;;10.83;;
8652;SDS011;4364;52.426;9.424;2023-08-30T09:15:14;14.50;;;11.27;;
8652;SDS011;4364;52.426;9.424;2023-08-30T09:17:42;14.47;;;11.50;;
8652;SDS011;4364;52.426;9.424;2023-08-30T09:20:09;13.60;;;10.90;;
8652;SDS011;4364;52.426;9.424;2023-08-30T09:22:40;12.60;;;11.03;;
8652;SDS011;4364;52.426;9.424;2023-08-30T09:25:08;14.83;;;11.70;;
8652;SDS011;4364;52.426;9.424;2023-08-30T09:27:36;16.57;;;11.37;;
8652;SDS011;4364;52.426;9.424;2023-08-30T09:30:05;16.13;;;12.07;;
8652;SDS011;4364;52.426;9.424;2023-08-30T09:32:40;13.63;;;11.00;;
8652;SDS011;4364;52.426;9.424;2023-08-30T09:35:08;14.30;;;10.83;;
8652;SDS011;4364;52.426;9.424;2023-08-30T09:37:35;17.03;;;12.23;;
8652;SDS011;4364;52.426;9.424;2023-08-30T09:40:02;14.07;;;10.47;;
8652;SDS011;4364;52.426;9.424;2023-08-30T09:42:29;16.30;;;11.83;;
8652;SDS011;4364;52.426;9.424;2023-08-30T09:44:56;15.00;;;11.97;;
8652;SDS011;4364;52.426;9.424;2023-08-30T09:47:24;13.87;;;10.90;;
8652;SDS011;4364;52.426;9.424;2023-08-30T09:49:54;13.53;;;10.07;;
8652;SDS011;4364;52.426;9.424;2023-08-30T09:52:23;11.27;;;9.73;;
8652;SDS011;4364;52.426;9.424;2023-08-30T09:54:51;12.97;;;10.57;;
8652;SDS011;4364;52.426;9.424;2023-08-30T09:57:18;15.37;;;10.67;;
8652;SDS011;4364;52.426;9.424;2023-08-30T09:59:44;12.50;;;9.80;;
8652;SDS011;4364;52.426;9.424;2023-08-30T10:02:12;13.00;;;10.70;;
8652;SDS011;4364;52.426;9.424;2023-08-30T10:04:39;10.27;;;8.60;;
8652;SDS011;4364;52.426;9.424;2023-08-30T10:07:07;13.97;;;11.03;;
8652;SDS011;4364;52.426;9.424;2023-08-30T10:09:36;13.30;;;8.70;;
8652;SDS011;4364;52.426;9.424;2023-08-30T10:12:20;10.97;;;9.07;;
8652;SDS011;4364;52.426;9.424;2023-08-30T10:14:50;8.60;;;7.30;;
8652;SDS011;4364;52.426;9.424;2023-08-30T10:17:17;10.90;;;8.70;;
8652;SDS011;4364;52.426;9.424;2023-08-30T10:19:47;10.40;;;8.33;;
8652;SDS011;4364;52.426;9.424;2023-08-30T10:22:16;12.27;;;9.80;;
8652;SDS011;4364;52.426;9.424;2023-08-30T10:24:44;9.80;;;8.67;;
8652;SDS011;4364;52.426;9.424;2023-08-30T10:27:36;8.50;;;7.60;;
8652;SDS011;4364;52.426;9.424;2023-08-30T10:30:06;11.63;;;9.13;;
8652;SDS011;4364;52.426;9.424;2023-08-30T10:32:38;9.33;;;8.10;;
8652;SDS011;4364;52.426;9.424;2023-08-30T10:35:07;10.50;;;8.83;;
8652;SDS011;4364;52.426;9.424;2023-08-30T10:37:37;11.17;;;8.07;;
8652;SDS011;4364;52.426;9.424;2023-08-30T10:40:03;12.33;;;7.90;;
8652;SDS011;4364;52.426;9.424;2023-08-30T10:42:32;11.03;;;8.73;;
8652;SDS011;4364;52.426;9.424;2023-08-30T10:45:05;9.90;;;8.40;;
8652;SDS011;4364;52.426;9.424;2023-08-30T10:47:40;12.73;;;8.60;;
8652;SDS011;4364;52.426;9.424;2023-08-30T10:50:08;12.43;;;9.00;;
8652;SDS011;4364;52.426;9.424;2023-08-30T10:52:38;9.67;;;7.57;;
8652;SDS011;4364;52.426;9.424;2023-08-30T10:55:08;7.70;;;6.90;;
8652;SDS011;4364;52.426;9.424;2023-08-30T10:57:37;10.33;;;8.10;;
8652;SDS011;4364;52.426;9.424;2023-08-30T11:02:44;10.90;;;7.03;;
8652;SDS011;4364;52.426;9.424;2023-08-30T11:05:12;12.23;;;7.80;;
8652;SDS011;4364;52.426;9.424;2023-08-30T11:07:39;10.37;;;7.70;;
8652;SDS011;4364;52.426;9.424;2023-08-30T11:10:06;8.60;;;6.30;;
8652;SDS011;4364;52.426;9.424;2023-08-30T11:12:33;8.50;;;6.93;;
8652;SDS011;4364;52.426;9.424;2023-08-30T11:15:01;10.73;;;6.27;;
8652;SDS011;4364;52.426;9.424;2023-08-30T11:17:29;9.40;;;5.67;;
8652;SDS011;4364;52.426;9.424;2023-08-30T11:20:09;7.53;;;6.10;;
8652;SDS011;4364;52.426;9.424;2023-08-30T11:22:40;8.20;;;6.10;;
8652;SDS011;4364;52.426;9.424;2023-08-30T11:25:09;9.57;;;5.00;;
8652;SDS011;4364;52.426;9.424;2023-08-30T11:27:37;9.93;;;6.20;;
8652;SDS011;4364;52.426;9.424;2023-08-30T11:30:05;9.47;;;6.97;;
8652;SDS011;4364;52.426;9.424;2023-08-30T11:32:33;7.77;;;6.27;;
8652;SDS011;4364;52.426;9.424;2023-08-30T11:35:01;10.50;;;7.93;;
8652;SDS011;4364;52.426;9.424;2023-08-30T11:37:29;7.93;;;6.40;;
8652;SDS011;4364;52.426;9.424;2023-08-30T11:39:56;6.90;;;6.07;;
8652;SDS011;4364;52.426;9.424;2023-08-30T11:42:23;7.77;;;6.30;;
8652;SDS011;4364;52.426;9.424;2023-08-30T11:44:50;8.60;;;6.67;;
8652;SDS011;4364;52.426;9.424;2023-08-30T11:47:18;7.60;;;6.73;;
8652;SDS011;4364;52.426;9.424;2023-08-30T11:49:57;6.87;;;5.87;;
8652;SDS011;4364;52.426;9.424;2023-08-30T11:52:26;5.67;;;4.93;;
8652;SDS011;4364;52.426;9.424;2023-08-30T11:54:55;8.03;;;6.40;;
8652;SDS011;4364;52.426;9.424;2023-08-30T11:57:21;5.20;;;4.70;;
8652;SDS011;4364;52.426;9.424;2023-08-30T11:59:48;7.57;;;5.23;;
8652;SDS011;4364;52.426;9.424;2023-08-30T12:02:16;7.30;;;5.33;;
8652;SDS011;4364;52.426;9.424;2023-08-30T12:04:44;8.37;;;5.53;;
8652;SDS011;4364;52.426;9.424;2023-08-30T12:07:25;10.23;;;5.93;;
8652;SDS011;4364;52.426;9.424;2023-08-30T12:10:03;7.70;;;5.70;;
8652;SDS011;4364;52.426;9.424;2023-08-30T12:12:30;8.37;;;5.73;;
8652;SDS011;4364;52.426;9.424;2023-08-30T12:14:58;7.20;;;6.10;;
8652;SDS011;4364;52.426;9.424;2023-08-30T12:17:24;7.23;;;5.50;;
8652;SDS011;4364;52.426;9.424;2023-08-30T12:19:57;7.47;;;4.90;;
8652;SDS011;4364;52.426;9.424;2023-08-30T12:22:35;7.33;;;5.70;;
8652;SDS011;4364;52.426;9.424;2023-08-30T12:25:03;6.40;;;5.10;;
8652;SDS011;4364;52.426;9.424;2023-08-30T12:27:31;6.53;;;5.70;;
8652;SDS011;4364;52.426;9.424;2023-08-30T12:29:57;7.30;;;4.93;;
8652;SDS011;4364;52.426;9.424;2023-08-30T12:32:24;5.77;;;4.67;;
8652;SDS011;4364;52.426;9.424;2023-08-30T12:34:50;7.00;;;5.33;;
8652;SDS011;4364;52.426;9.424;2023-08-30T12:37:17;8.03;;;5.13;;
8652;SDS011;4364;52.426;9.424;2023-08-30T12:39:43;6.67;;;4.73;;
8652;SDS011;4364;52.426;9.424;2023-08-30T12:42:10;6.83;;;5.50;;
8652;SDS011;4364;52.426;9.424;2023-08-30T12:44:38;7.43;;;5.40;;
8652;SDS011;4364;52.426;9.424;2023-08-30T12:47:04;7.73;;;5.77;;
8652;SDS011;4364;52.426;9.424;2023-08-30T12:49:31;8.00;;;5.90;;
8652;SDS011;4364;52.426;9.424;2023-08-30T12:51:58;9.80;;;6.70;;
8652;SDS011;4364;52.426;9.424;2023-08-30T12:54:25;6.77;;;5.23;;
8652;SDS011;4364;52.426;9.424;2023-08-30T12:56:51;6.50;;;5.13;;
8652;SDS011;4364;52.426;9.424;2023-08-30T12:59:18;7.50;;;5.47;;
8652;SDS011;4364;52.426;9.424;2023-08-30T13:01:44;8.10;;;5.83;;
8652;SDS011;4364;52.426;9.424;2023-08-30T13:04:11;5.87;;;4.87;;
8652;SDS011;4364;52.426;9.424;2023-08-30T13:06:37;5.27;;;4.63;;
8652;SDS011;4364;52.426;9.424;2023-08-30T13:09:04;7.00;;;4.80;;
8652;SDS011;4364;52.426;9.424;2023-08-30T13:11:30;7.67;;;5.17;;
8652;SDS011;4364;52.426;9.424;2023-08-30T13:13:58;6.13;;;5.43;;
8652;SDS011;4364;52.426;9.424;2023-08-30T13:16:26;7.90;;;5.23;;
8652;SDS011;4364;52.426;9.424;2023-08-30T13:18:52;7.03;;;5.27;;
8652;SDS011;4364;52.426;9.424;2023-08-30T13:21:19;6.50;;;5.00;;
8652;SDS011;4364;52.426;9.424;2023-08-30T13:23:56;7.53;;;5.40;;
8652;SDS011;4364;52.426;9.424;2023-08-30T13:26:23;6.80;;;5.80;;
8652;SDS011;4364;52.426;9.424;2023-08-30T13:28:49;7.57;;;6.13;;
8652;SDS011;4364;52.426;9.424;2023-08-30T13:31:16;7.10;;;5.60;;
8652;SDS011;4364;52.426;9.424;2023-08-30T13:33:42;7.77;;;5.50;;
8652;SDS011;4364;52.426;9.424;2023-08-30T13:36:09;6.10;;;4.67;;
8652;SDS011;4364;52.426;9.424;2023-08-30T13:38:35;5.70;;;5.10;;
8652;SDS011;4364;52.426;9.424;2023-08-30T13:41:02;7.30;;;4.70;;
8652;SDS011;4364;52.426;9.424;2023-08-30T13:43:30;6.37;;;5.23;;
8652;SDS011;4364;52.426;9.424;2023-08-30T13:45:58;7.10;;;5.60;;
8652;SDS011;4364;52.426;9.424;2023-08-30T13:48:25;6.87;;;5.00;;
8652;SDS011;4364;52.426;9.424;2023-08-30T13:50:52;5.00;;;4.60;;
8652;SDS011;4364;52.426;9.424;2023-08-30T13:53:18;6.63;;;5.33;;
8652;SDS011;4364;52.426;9.424;2023-08-30T13:55:45;7.93;;;5.30;;
8652;SDS011;4364;52.426;9.424;2023-08-30T13:58:15;6.67;;;5.37;;
8652;SDS011;4364;52.426;9.424;2023-08-30T14:00:42;7.90;;;5.60;;
8652;SDS011;4364;52.426;9.424;2023-08-30T14:03:10;7.13;;;5.17;;
8652;SDS011;4364;52.426;9.424;2023-08-30T14:05:37;6.10;;;4.77;;
8652;SDS011;4364;52.426;9.424;2023-08-30T14:08:06;8.27;;;5.67;;
8652;SDS011;4364;52.426;9.424;2023-08-30T14:10:34;6.50;;;5.57;;
8652;SDS011;4364;52.426;9.424;2023-08-30T14:13:00;6.57;;;5.07;;
8652;SDS011;4364;52.426;9.424;2023-08-30T14:15:27;6.80;;;4.87;;
8652;SDS011;4364;52.426;9.424;2023-08-30T14:17:54;6.87;;;5.23;;
8652;SDS011;4364;52.426;9.424;2023-08-30T14:20:20;10.00;;;6.10;;
8652;SDS011;4364;52.426;9.424;2023-08-30T14:22:47;10.67;;;7.57;;
8652;SDS011;4364;52.426;9.424;2023-08-30T14:25:13;11.10;;;6.27;;
8652;SDS011;4364;52.426;9.424;2023-08-30T14:27:40;8.43;;;7.10;;
8652;SDS011;4364;52.426;9.424;2023-08-30T14:30:07;7.93;;;7.03;;
8652;SDS011;4364;52.426;9.424;2023-08-30T14:32:34;8.77;;;6.60;;
8652;SDS011;4364;52.426;9.424;2023-08-30T14:35:02;6.67;;;5.97;;
8652;SDS011;4364;52.426;9.424;2023-08-30T14:37:29;7.93;;;7.13;;
8652;SDS011;4364;52.426;9.424;2023-08-30T14:39:56;8.43;;;7.43;;
8652;SDS011;4364;52.426;9.424;2023-08-30T14:42:23;10.93;;;8.97;;
8652;SDS011;4364;52.426;9.424;2023-08-30T14:44:50;8.70;;;7.60;;
8652;SDS011;4364;52.426;9.424;2023-08-30T14:47:19;9.60;;;7.63;;
8652;SDS011;4364;52.426;9.424;2023-08-30T14:49:47;10.53;;;8.10;;
8652;SDS011;4364;52.426;9.424;2023-08-30T14:52:14;8.47;;;7.57;;
8652;SDS011;4364;52.426;9.424;2023-08-30T14:54:41;9.63;;;7.83;;
8652;SDS011;4364;52.426;9.424;2023-08-30T14:57:09;9.33;;;7.20;;
8652;SDS011;4364;52.426;9.424;2023-08-30T14:59:35;9.87;;;7.53;;
8652;SDS011;4364;52.426;9.424;2023-08-30T15:02:02;11.20;;;8.43;;
8652;SDS011;4364;52.426;9.424;2023-08-30T15:04:29;8.57;;;7.67;;
8652;SDS011;4364;52.426;9.424;2023-08-30T15:06:56;10.70;;;7.23;;
8652;SDS011;4364;52.426;9.424;2023-08-30T15:09:22;24.07;;;19.27;;
8652;SDS011;4364;52.426;9.424;2023-08-30T15:11:49;12.73;;;10.93;;
8652;SDS011;4364;52.426;9.424;2023-08-30T15:14:15;10.80;;;8.70;;
8652;SDS011;4364;52.426;9.424;2023-08-30T15:16:42;19.57;;;14.67;;
8652;SDS011;4364;52.426;9.424;2023-08-30T15:19:08;20.53;;;16.70;;
8652;SDS011;4364;52.426;9.424;2023-08-30T15:21:35;15.17;;;11.80;;